In Rescue
 
Open Full Screen Window  High Contrast Mode
July 23, 2019 12:00 AM CDT
Weather Information
Wind Direction
  ---
Wind Speed
  00 kt (0 mph)
Wind Gust
  00 kt (0 mph)
Altimeter
30.20 in
Visibility
10 SM
Temperature
21° C
70° F
Dewpoint
12° C
54° F
Humidity
57%
1hr Rain Fall
00.00 in.
24hr Rain Fall
00.00 in.
Sky Condition
Clear
VFR

METAR KSGS 230500Z AUTO 00000KT 10SM CLR 21/12 A3020 RMK AO2 T02060115

FAA Disclaimer: The data displayed is for advisory purposes only and is not to be used for flight planning or operations.